Time;durP1;ratioP1;P1;durP2;ratioP2;P2;SDS_P1;SDS_P2;PMS_P1;PMS_P2;Temp;Humidity;BMP_temperature;BMP_pressure;BME280_temperature;BME280_humidity;BME280_pressure;Samples;Min_cycle;Max_cycle;Signal;HPM_P1;HPM_P2
2021/04/27 00:01:29;;;;;;;11.05;1.58;;;;;;;5.99;44.29;98221.97;5071180;28;20028;-70
2021/04/27 00:03:55;;;;;;;4.07;1.60;;;;;;;5.83;45.42;98218.44;5065499;28;20024;-70
2021/04/27 00:06:20;;;;;;;2.65;1.40;;;;;;;5.66;45.59;98212.44;5071977;28;20028;-70
2021/04/27 00:08:45;;;;;;;3.20;1.35;;;;;;;5.45;45.84;98213.19;5072400;28;20024;-70
2021/04/27 00:11:11;;;;;;;9.95;1.75;;;;;;;5.37;46.49;98215.97;5068801;28;20027;-70
2021/04/27 00:13:37;;;;;;;5.63;2.03;;;;;;;5.47;46.35;98208.47;5054432;28;20098;-70
2021/04/27 00:16:03;;;;;;;2.92;1.50;;;;;;;5.59;46.63;98200.78;5054280;28;20017;-70
2021/04/27 00:18:28;;;;;;;3.05;1.73;;;;;;;5.44;46.87;98208.84;5072236;28;20052;-70
2021/04/27 00:20:54;;;;;;;4.50;1.48;;;;;;;5.35;46.75;98191.19;5070320;28;20494;-70
2021/04/27 00:23:19;;;;;;;2.45;1.50;;;;;;;5.37;47.06;98199.03;5054178;28;20059;-70
2021/04/27 00:25:44;;;;;;;2.83;1.63;;;;;;;5.26;47.11;98200.31;5072856;28;20028;-70
2021/04/27 00:28:10;;;;;;;2.75;1.55;;;;;;;5.22;47.13;98196.38;5072265;28;20028;-70
2021/04/27 00:30:35;;;;;;;4.15;1.50;;;;;;;5.19;47.89;98204.78;5072027;28;20036;-70
2021/04/27 00:33:01;;;;;;;6.88;1.83;;;;;;;4.99;47.03;98194.56;5069709;28;20517;-70
2021/04/27 00:35:26;;;;;;;3.90;1.10;;;;;;;4.97;47.89;98196.59;5071806;28;20036;-70
2021/04/27 00:37:52;;;;;;;3.13;1.45;;;;;;;4.96;48.16;98194.94;5071679;28;20024;-70
2021/04/27 00:40:19;;;;;;;1.85;1.40;;;;;;;5.04;47.73;98183.31;5071510;28;20028;-70
2021/04/27 00:42:47;;;;;;;4.50;1.55;;;;;;;5.01;48.08;98192.53;5053971;28;20024;-70
2021/04/27 00:45:16;;;;;;;3.05;1.70;;;;;;;5.10;47.53;98187.91;5070764;28;20482;-70
2021/04/27 00:47:41;;;;;;;2.65;1.83;;;;;;;5.19;47.43;98177.97;5052871;28;20040;-70
2021/04/27 00:50:10;;;;;;;1.90;1.40;;;;;;;5.26;47.19;98184.22;5071955;28;20393;-71
2021/04/27 00:52:36;;;;;;;5.10;1.52;;;;;;;5.24;47.26;98186.28;5071712;28;20432;-70
2021/04/27 00:55:03;;;;;;;4.68;1.30;;;;;;;5.24;48.51;98186.28;5072131;28;20047;-70
2021/04/27 00:57:28;;;;;;;3.42;1.70;;;;;;;5.21;47.57;98176.75;5058290;28;20024;-70
2021/04/27 00:59:55;;;;;;;4.13;1.48;;;;;;;5.31;47.53;98176.47;5072096;28;20553;-70
2021/04/27 01:02:21;;;;;;;3.22;1.35;;;;;;;5.30;46.79;98182.84;5070736;28;20074;-70
2021/04/27 01:04:46;;;;;;;4.18;1.77;;;;;;;5.30;47.64;98174.81;5071649;28;20036;-70
2021/04/27 01:07:12;;;;;;;6.22;1.73;;;;;;;5.19;48.13;98160.00;5071521;28;20035;-70
2021/04/27 01:09:47;;;;;;;3.65;1.77;;;;;;;5.03;47.76;98158.34;5038931;28;20501;-70
2021/04/27 01:12:33;;;;;;;3.00;1.77;;;;;;;5.07;48.09;98158.81;5067408;28;20120;-70
2021/04/27 01:15:12;;;;;;;3.72;1.50;;;;;;;5.09;48.42;98155.94;5056441;28;20115;-70
2021/04/27 01:17:39;;;;;;;1.77;1.35;;;;;;;4.99;48.26;98158.91;5064324;28;20032;-70
2021/04/27 01:20:07;;;;;;;5.15;1.60;;;;;;;4.92;49.22;98164.13;5068352;28;20025;-70
2021/04/27 01:22:57;;;;;;;5.07;1.50;;;;;;;4.86;49.43;98175.59;5053380;28;20033;-70
2021/04/27 01:25:32;;;;;;;5.43;1.60;;;;;;;4.90;49.00;98168.00;5059823;28;20025;-70
2021/04/27 01:27:58;;;;;;;3.42;1.52;;;;;;;4.82;48.88;98171.59;5070472;28;20028;-70
2021/04/27 01:30:25;;;;;;;2.80;1.50;;;;;;;4.87;48.95;98163.84;5070843;28;20035;-70
2021/04/27 01:32:52;;;;;;;2.30;1.40;;;;;;;4.78;49.11;98170.31;5067240;28;20498;-72
2021/04/27 01:35:19;;;;;;;3.28;1.50;;;;;;;4.69;49.84;98168.72;5055804;28;20044;-70
2021/04/27 01:37:44;;;;;;;2.80;1.27;;;;;;;4.46;50.25;98163.41;5074559;28;20424;-70
2021/04/27 01:40:10;;;;;;;2.47;1.45;;;;;;;4.32;50.89;98163.19;5075049;28;20025;-70
2021/04/27 01:42:36;;;;;;;4.78;1.27;;;;;;;4.22;51.50;98172.44;5074826;28;20020;-70
2021/04/27 01:45:02;;;;;;;2.75;1.48;;;;;;;4.04;51.91;98154.84;5071924;28;20486;-70
2021/04/27 01:47:28;;;;;;;3.30;1.63;;;;;;;4.01;52.17;98159.72;5073080;28;20020;-70
2021/04/27 01:49:53;;;;;;;4.45;1.70;;;;;;;3.94;53.06;98151.56;5056344;28;20033;-70
2021/04/27 01:52:19;;;;;;;4.07;1.45;;;;;;;3.87;53.00;98154.09;5074874;28;20040;-70
2021/04/27 01:54:44;;;;;;;2.15;1.40;;;;;;;3.74;53.29;98152.00;5069984;28;20107;-70
2021/04/27 01:57:10;;;;;;;6.68;1.80;;;;;;;3.66;53.86;98157.41;5062676;28;20032;-70
2021/04/27 01:59:35;;;;;;;4.35;1.70;;;;;;;3.48;54.49;98159.50;5073986;28;20048;-70
2021/04/27 02:02:00;;;;;;;2.15;1.70;;;;;;;3.46;54.09;98148.16;5074660;28;20470;-70
2021/04/27 02:04:28;;;;;;;3.30;1.70;;;;;;;3.31;54.53;98144.56;5073002;28;20552;-70
2021/04/27 02:06:54;;;;;;;2.65;1.67;;;;;;;3.22;54.58;98123.19;5037466;28;20036;-70
2021/04/27 02:09:22;;;;;;;2.45;1.25;;;;;;;3.33;55.09;98131.81;5069523;28;20051;-70
2021/04/27 02:11:50;;;;;;;6.63;1.65;;;;;;;3.34;54.26;98145.03;5074462;28;20127;-70
2021/04/27 02:14:16;;;;;;;4.82;1.98;;;;;;;3.26;54.71;98132.53;5075249;28;20032;-70
2021/04/27 02:23:26;;;;;;;2.40;1.60;;;;;;;3.11;55.61;98126.22;5070343;28;20032;-70
2021/04/27 02:25:53;;;;;;;5.35;1.80;;;;;;;3.15;55.36;98124.06;5058097;28;20035;-70
2021/04/27 02:28:19;;;;;;;3.75;1.90;;;;;;;3.14;55.14;98125.88;5120591;22;20044;-69
2021/04/27 02:30:45;;;;;;;4.38;1.85;;;;;;;3.16;55.21;98133.75;5086313;28;20114;-69
2021/04/27 02:33:10;;;;;;;2.30;1.60;;;;;;;3.08;55.06;98122.06;5083417;28;20167;-69
2021/04/27 02:35:35;;;;;;;5.18;1.60;;;;;;;3.16;57.12;98131.91;5076906;28;20034;-69
2021/04/27 02:38:00;;;;;;;3.40;1.70;;;;;;;3.09;57.63;98125.56;5057635;28;20032;-69
2021/04/27 02:40:28;;;;;;;2.70;1.55;;;;;;;2.99;58.18;98117.75;5066614;28;20021;-69
2021/04/27 02:42:56;;;;;;;3.13;1.90;;;;;;;2.93;58.09;98123.78;5056887;28;20032;-69
2021/04/27 02:45:30;;;;;;;4.88;1.40;;;;;;;2.95;58.14;98118.28;5069154;28;20021;-69
2021/04/27 02:48:07;;;;;;;3.72;1.67;;;;;;;2.85;57.99;98121.97;5056024;28;20461;-70
2021/04/27 02:50:32;;;;;;;7.05;1.67;;;;;;;2.70;58.04;98098.78;5055932;28;20045;-69
2021/04/27 02:52:58;;;;;;;3.15;1.48;;;;;;;2.80;57.46;98104.78;5067167;28;20028;-69
2021/04/27 02:55:23;;;;;;;3.83;1.90;;;;;;;2.77;57.81;98099.78;5055984;28;20021;-69
2021/04/27 02:57:48;;;;;;;5.85;1.73;;;;;;;2.98;57.33;98108.06;5067350;28;20032;-69
2021/04/27 03:00:14;;;;;;;2.85;1.63;;;;;;;3.04;57.14;98106.56;5073645;28;20025;-69
2021/04/27 03:02:40;;;;;;;5.50;1.80;;;;;;;3.01;56.87;98090.84;5043816;28;20474;-77
2021/04/27 03:05:06;;;;;;;4.57;1.90;;;;;;;3.01;56.88;98094.38;5048317;28;20123;-75
2021/04/27 03:07:31;;;;;;;2.38;1.73;;;;;;;2.94;56.94;98096.06;5057893;28;20047;-76
2021/04/27 03:09:56;;;;;;;4.78;1.70;;;;;;;2.87;57.18;98092.41;5039557;28;20107;-76
2021/04/27 03:12:22;;;;;;;4.28;1.90;;;;;;;2.96;56.35;98095.88;5052331;28;20040;-78
2021/04/27 03:14:47;;;;;;;3.47;1.50;;;;;;;3.09;56.84;98090.81;5036986;28;20474;-73
2021/04/27 03:17:13;;;;;;;8.82;2.20;;;;;;;2.89;56.74;98087.75;5056000;28;20021;-70
2021/04/27 03:19:38;;;;;;;5.50;1.80;;;;;;;2.81;57.20;98091.25;5068967;28;20021;-77
2021/04/27 03:22:03;;;;;;;3.33;2.28;;;;;;;2.86;59.11;98104.13;5046014;28;20482;-76
2021/04/27 03:24:29;;;;;;;3.70;1.90;;;;;;;2.61;60.22;98095.31;5057752;28;20027;-69
2021/04/27 03:26:54;;;;;;;3.22;1.58;;;;;;;2.71;60.44;98113.84;5060512;28;20028;-70
2021/04/27 03:29:20;;;;;;;3.10;1.80;;;;;;;2.45;59.81;98111.38;5054718;28;20032;-71
2021/04/27 03:31:45;;;;;;;3.28;1.92;;;;;;;2.38;60.86;98079.16;5056342;28;20063;-70
2021/04/27 03:34:10;;;;;;;3.65;1.75;;;;;;;2.36;60.75;98099.88;5066121;28;20056;-72
2021/04/27 03:36:36;;;;;;;3.95;1.80;;;;;;;2.27;60.59;98095.53;5059688;28;20024;-73
2021/04/27 03:39:01;;;;;;;7.68;2.08;;;;;;;2.45;59.91;98096.19;5054532;28;20037;-74
2021/04/27 03:41:27;;;;;;;3.50;2.00;;;;;;;2.52;60.01;98099.84;5035202;28;20386;-75
2021/04/27 03:43:52;;;;;;;4.20;1.70;;;;;;;2.66;60.28;98111.66;5041618;28;20031;-75
2021/04/27 03:46:17;;;;;;;3.53;1.83;;;;;;;2.47;59.97;98102.19;5055164;28;20035;-71
2021/04/27 03:48:42;;;;;;;4.18;1.98;;;;;;;2.52;60.66;98115.03;5052948;28;20119;-74
2021/04/27 03:51:08;;;;;;;2.33;1.40;;;;;;;2.40;60.67;98099.34;5062221;28;20029;-74
2021/04/27 03:53:33;;;;;;;2.80;1.80;;;;;;;2.33;60.34;98093.03;5055343;28;20033;-75
2021/04/27 03:55:59;;;;;;;3.85;1.90;;;;;;;2.44;60.42;98105.22;5044317;28;20020;-74
2021/04/27 03:58:24;;;;;;;8.73;2.28;;;;;;;2.55;60.03;98128.06;5054317;28;20086;-73
2021/04/27 04:00:50;;;;;;;4.07;1.80;;;;;;;2.56;59.73;98122.53;5036086;28;20028;-67
2021/04/27 04:03:15;;;;;;;2.65;1.83;;;;;;;2.51;60.17;98121.38;5064482;28;20036;-71
2021/04/27 04:05:40;;;;;;;5.25;1.80;;;;;;;2.44;59.56;98104.34;5067589;28;20093;-74
2021/04/27 04:08:06;;;;;;;3.97;1.88;;;;;;;2.36;60.25;98100.72;5052557;28;20031;-69
2021/04/27 04:10:31;;;;;;;3.88;2.22;;;;;;;2.44;60.64;98121.22;5058959;28;20037;-71
2021/04/27 04:12:57;;;;;;;3.58;1.95;;;;;;;2.43;60.52;98114.19;5040991;28;20033;-73
2021/04/27 04:15:22;;;;;;;4.40;1.92;;;;;;;2.19;60.33;98093.72;5063426;28;20032;-71
2021/04/27 04:17:48;;;;;;;5.28;2.13;;;;;;;2.28;60.69;98130.06;5065080;28;20033;-72
2021/04/27 04:20:18;;;;;;;3.65;1.80;;;;;;;2.20;61.04;98122.03;5061671;28;20060;-72
2021/04/27 04:22:44;;;;;;;4.35;2.10;;;;;;;2.30;60.86;98114.72;5057499;28;20044;-73
2021/04/27 04:25:12;;;;;;;3.65;2.13;;;;;;;2.22;61.11;98104.03;5040162;28;20033;-72
2021/04/27 04:27:38;;;;;;;3.67;1.98;;;;;;;2.26;61.00;98108.06;5040456;28;20041;-71
2021/04/27 04:30:10;;;;;;;6.70;2.10;;;;;;;2.33;60.34;98114.41;5053430;28;20054;-71
2021/04/27 04:32:35;;;;;;;4.65;1.67;;;;;;;2.35;60.47;98103.53;5065202;28;20538;-70
2021/04/27 04:35:01;;;;;;;5.63;1.95;;;;;;;2.35;60.46;98107.03;5065520;28;20032;-71
2021/04/27 04:37:27;;;;;;;3.58;1.90;;;;;;;2.52;60.88;98118.53;5054315;28;20104;-70
2021/04/27 04:39:52;;;;;;;2.65;1.60;;;;;;;2.55;60.04;98118.19;5059434;28;20025;-70
2021/04/27 04:42:18;;;;;;;2.97;2.00;;;;;;;2.62;59.71;98123.72;5035151;28;20021;-70
2021/04/27 04:44:43;;;;;;;3.63;1.83;;;;;;;2.66;59.44;98117.00;5035794;28;20535;-72
2021/04/27 04:47:08;;;;;;;3.97;1.65;;;;;;;2.83;59.35;98131.19;5060849;28;20033;-74
2021/04/27 04:49:34;;;;;;;4.95;1.52;;;;;;;2.92;58.85;98129.31;5040477;28;20039;-75
2021/04/27 04:51:59;;;;;;;3.50;1.83;;;;;;;3.07;58.66;98119.59;5055777;28;20033;-75
2021/04/27 04:54:25;;;;;;;4.03;1.63;;;;;;;3.18;58.38;98127.22;5043664;28;20033;-74
2021/04/27 04:56:51;;;;;;;5.25;1.95;;;;;;;3.29;58.24;98126.00;5052519;28;20031;-76
2021/04/27 04:59:16;;;;;;;4.03;2.03;;;;;;;3.33;57.65;98105.94;5051256;28;20071;-75
2021/04/27 05:01:42;;;;;;;8.98;2.00;;;;;;;3.38;57.61;98100.03;5057553;28;20028;-70
2021/04/27 05:04:07;;;;;;;4.70;1.95;;;;;;;3.43;58.14;98095.88;5066306;28;20498;-72
2021/04/27 05:06:36;;;;;;;2.97;1.80;;;;;;;3.74;57.91;98124.41;5051799;28;20116;-74
2021/04/27 05:09:06;;;;;;;4.05;1.65;;;;;;;3.77;58.25;98134.75;5044370;28;20706;-70
2021/04/27 05:11:32;;;;;;;6.07;2.08;;;;;;;3.90;57.77;98134.19;5073287;28;20033;-70
2021/04/27 05:13:59;;;;;;;4.78;2.10;;;;;;;3.88;57.51;98137.06;5068260;28;20113;-72
2021/04/27 05:16:24;;;;;;;4.18;2.00;;;;;;;3.91;57.09;98123.31;5047762;28;20493;-72
2021/04/27 05:18:51;;;;;;;6.35;2.15;;;;;;;3.73;57.23;98112.91;5067116;28;20028;-72
2021/04/27 05:21:16;;;;;;;3.85;1.80;;;;;;;4.12;56.82;98121.84;5064029;28;20381;-71
2021/04/27 05:23:43;;;;;;;2.65;1.77;;;;;;;4.23;57.03;98125.94;5065363;28;20025;-73
2021/04/27 05:26:08;;;;;;;6.18;2.13;;;;;;;4.22;57.09;98114.41;5056793;28;20078;-75
2021/04/27 05:28:34;;;;;;;3.35;2.05;;;;;;;4.53;56.07;98119.66;5067926;28;20025;-73
2021/04/27 05:30:59;;;;;;;4.32;1.95;;;;;;;4.68;55.79;98126.88;5075601;28;20056;-71
2021/04/27 05:33:24;;;;;;;3.00;1.88;;;;;;;4.74;55.51;98099.34;5068429;28;20025;-73
2021/04/27 05:35:50;;;;;;;6.70;1.70;;;;;;;5.08;54.92;98112.19;5053979;28;20085;-72
2021/04/27 05:38:15;;;;;;;7.00;2.30;;;;;;;5.31;54.03;98117.47;5067722;28;20024;-74
2021/04/27 05:40:40;;;;;;;5.30;2.20;;;;;;;5.45;53.82;98116.63;5070008;28;20025;-72
2021/04/27 05:43:06;;;;;;;8.27;2.17;;;;;;;5.74;52.31;98114.03;5064450;28;20474;-73
2021/04/27 05:45:32;;;;;;;10.10;2.03;;;;;;;6.25;52.27;98116.66;5055117;28;20135;-74
2021/04/27 05:47:57;;;;;;;3.97;1.77;;;;;;;6.52;51.94;98117.72;5057436;28;20435;-75
2021/04/27 05:50:23;;;;;;;3.90;2.05;;;;;;;6.66;52.03;98122.19;5056050;28;20408;-74
2021/04/27 05:52:49;;;;;;;2.75;1.75;;;;;;;6.84;50.75;98113.66;5056608;28;20017;-75
2021/04/27 05:55:15;;;;;;;4.43;2.20;;;;;;;7.18;50.26;98120.88;5052172;28;20486;-68
2021/04/27 05:57:40;;;;;;;7.97;2.08;;;;;;;7.41;49.43;98117.06;5064169;28;20032;-70
2021/04/27 06:00:07;;;;;;;5.32;2.15;;;;;;;7.53;48.97;98096.63;5064793;28;20025;-72
2021/04/27 06:02:32;;;;;;;4.35;2.40;;;;;;;8.10;48.09;98119.56;5066935;28;20068;-71
2021/04/27 06:04:58;;;;;;;4.72;1.88;;;;;;;8.48;47.92;98097.44;5061475;28;20071;-75
2021/04/27 06:07:23;;;;;;;12.93;2.50;;;;;;;9.33;46.06;98107.53;5067181;28;20054;-73
2021/04/27 06:09:48;;;;;;;3.97;1.83;;;;;;;10.23;44.42;98097.50;5054465;28;20024;-73
2021/04/27 06:12:14;;;;;;;4.82;2.10;;;;;;;11.14;42.61;98098.00;5073019;28;20043;-78
2021/04/27 06:14:39;;;;;;;3.75;1.90;;;;;;;12.46;39.16;98102.78;5048631;28;20028;-74
2021/04/27 06:17:04;;;;;;;3.58;2.40;;;;;;;13.09;38.74;98087.72;5066257;28;20044;-79
2021/04/27 06:19:30;;;;;;;2.83;1.80;;;;;;;13.94;36.79;98083.56;5049527;28;20094;-71
2021/04/27 06:21:55;;;;;;;4.82;2.28;;;;;;;14.17;36.64;98071.72;5064543;28;20036;-79
2021/04/27 06:24:20;;;;;;;5.10;2.65;;;;;;;14.46;36.33;98097.84;5054083;28;20063;-72
2021/04/27 06:26:46;;;;;;;3.92;2.17;;;;;;;13.73;36.56;98077.72;5059738;28;20040;-78
2021/04/27 06:29:11;;;;;;;4.00;2.15;;;;;;;14.19;35.20;98077.75;5071205;28;20029;-77
2021/04/27 06:31:37;;;;;;;5.03;2.13;;;;;;;15.24;34.17;98070.72;5046606;28;20496;-76
2021/04/27 06:34:04;;;;;;;4.45;2.00;;;;;;;16.59;31.92;98074.72;5072497;28;20060;-74
2021/04/27 06:36:31;;;;;;;6.15;2.00;;;;;;;16.79;31.68;98074.09;5068734;28;20028;-75
2021/04/27 06:38:56;;;;;;;6.03;2.30;;;;;;;17.05;31.59;98061.44;5047583;28;20025;-74
2021/04/27 06:41:21;;;;;;;3.55;2.35;;;;;;;16.56;31.14;98075.25;5049335;28;20470;-73
2021/04/27 06:43:47;;;;;;;4.63;2.00;;;;;;;17.40;30.66;98068.22;5047693;28;20074;-73
2021/04/27 06:46:12;;;;;;;5.07;2.20;;;;;;;18.71;29.70;98068.84;5047345;28;20715;-72
2021/04/27 06:48:38;;;;;;;2.60;1.90;;;;;;;20.36;27.17;98070.78;5063491;28;20024;-73
2021/04/27 06:51:05;;;;;;;4.60;2.40;;;;;;;21.22;26.84;98067.59;5041871;28;20021;-68
2021/04/27 06:53:31;;;;;;;5.43;2.10;;;;;;;22.10;25.08;98059.97;5055765;28;20020;-71
2021/04/27 06:55:56;;;;;;;4.70;2.60;;;;;;;22.65;23.50;98060.28;5043205;28;20067;-71
2021/04/27 06:58:22;;;;;;;4.25;2.63;;;;;;;22.41;23.92;98054.06;5064652;28;20111;-71
2021/04/27 07:00:47;;;;;;;5.75;2.28;;;;;;;;;;5063524;28;20029;-69
2021/04/27 07:03:12;;;;;;;3.83;1.85;;;;;;;21.43;25.69;98062.75;5060312;28;20063;-70
2021/04/27 07:05:38;;;;;;;5.18;2.67;;;;;;;21.40;24.76;98049.56;5058388;28;20039;-70
2021/04/27 07:08:04;;;;;;;6.75;3.13;;;;;;;21.51;24.99;98039.25;5055459;28;20398;-69
2021/04/27 07:10:30;;;;;;;4.47;2.60;;;;;;;22.60;24.40;98045.75;5058786;28;20180;-69
2021/04/27 07:12:55;;;;;;;4.82;2.70;;;;;;;22.06;24.35;98050.66;5056582;28;20112;-70
2021/04/27 07:15:21;;;;;;;5.40;2.70;;;;;;;22.86;24.38;98049.72;5057385;28;20039;-71
2021/04/27 07:17:47;;;;;;;8.20;2.75;;;;;;;24.06;22.90;98043.28;5054427;28;20055;-70
2021/04/27 07:20:14;;;;;;;7.22;2.53;;;;;;;22.96;23.89;98035.78;5054867;28;20029;-70
2021/04/27 07:22:40;;;;;;;8.30;3.10;;;;;;;22.44;24.10;98036.94;5038811;28;20021;-70
2021/04/27 07:25:07;;;;;;;5.40;2.45;;;;;;;22.93;24.37;98050.16;5057378;28;20025;-75
2021/04/27 07:27:32;;;;;;;7.03;3.03;;;;;;;23.47;24.02;98041.47;5041109;28;20025;-77
2021/04/27 07:29:58;;;;;;;4.78;2.50;;;;;;;23.65;24.73;98040.53;5043930;28;20024;-76
2021/04/27 07:32:23;;;;;;;5.93;2.75;;;;;;;23.64;24.50;98047.22;5045216;28;20445;-72
2021/04/27 07:34:49;;;;;;;5.15;2.50;;;;;;;23.91;24.23;98034.53;5064666;28;20045;-73
2021/04/27 07:37:15;;;;;;;4.28;2.20;;;;;;;25.02;23.16;98037.69;5035649;28;20385;-75
2021/04/27 07:39:41;;;;;;;5.78;2.53;;;;;;;25.14;22.99;98038.75;5052192;28;20561;-72
2021/04/27 07:42:06;;;;;;;5.47;2.45;;;;;;;25.60;23.13;98045.03;5051939;28;20107;-73
2021/04/27 07:44:32;;;;;;;4.65;2.35;;;;;;;26.45;22.07;98037.19;5061843;28;20478;-71
2021/04/27 07:46:57;;;;;;;3.80;2.10;;;;;;;25.84;22.29;98028.00;5057549;28;20112;-73
2021/04/27 07:49:22;;;;;;;4.85;2.28;;;;;;;25.70;22.49;98027.25;5040103;28;20032;-69
2021/04/27 07:51:48;;;;;;;4.82;2.30;;;;;;;25.08;22.74;98039.22;5067723;28;20429;-77
2021/04/27 07:54:13;;;;;;;4.80;2.38;;;;;;;25.95;22.29;98028.50;5055184;28;20059;-77
2021/04/27 07:56:38;;;;;;;3.35;2.30;;;;;;;25.87;22.06;98032.91;5043243;28;20028;-76
2021/04/27 07:59:05;;;;;;;8.15;2.38;;;;;;;25.05;22.97;98039.84;5039981;28;20024;-70
2021/04/27 08:01:33;;;;;;;4.68;2.45;;;;;;;25.75;22.80;98036.28;5059990;28;20017;-75
2021/04/27 08:03:59;;;;;;;3.25;2.40;;;;;;;27.16;21.55;98016.53;5063003;28;20033;-69
2021/04/27 08:06:24;;;;;;;4.70;2.38;;;;;;;27.12;21.86;98032.22;5055510;28;20024;-69
2021/04/27 08:08:50;;;;;;;3.58;2.58;;;;;;;26.94;21.94;98030.66;5066060;28;20111;-70
2021/04/27 08:11:17;;;;;;;5.88;2.90;;;;;;;27.11;21.29;98030.59;5067115;28;20017;-72
2021/04/27 08:13:42;;;;;;;4.43;2.90;;;;;;;27.64;21.15;98029.28;5085725;28;20017;-78
2021/04/27 08:16:08;;;;;;;6.20;2.60;;;;;;;26.58;21.45;98029.88;5046486;28;20039;-75
2021/04/27 08:18:36;;;;;;;4.10;2.45;;;;;;;27.10;21.70;98028.97;5062762;28;20028;-71
2021/04/27 08:21:04;;;;;;;6.05;2.45;;;;;;;27.44;21.27;98019.72;5064182;28;20056;-71
2021/04/27 08:23:29;;;;;;;5.43;2.97;;;;;;;26.95;21.23;98029.50;5034469;28;20029;-71
2021/04/27 08:25:55;;;;;;;3.88;2.67;;;;;;;26.96;21.47;98031.09;5051079;28;20039;-71
2021/04/27 08:28:20;;;;;;;6.47;2.70;;;;;;;26.87;20.84;98015.28;5051835;28;20129;-71
2021/04/27 08:30:46;;;;;;;4.75;3.00;;;;;;;28.36;20.62;98019.00;5052264;28;20033;-75
2021/04/27 08:33:11;;;;;;;5.30;3.00;;;;;;;28.11;20.77;98011.66;5038866;28;20021;-69
2021/04/27 08:35:38;;;;;;;9.50;2.97;;;;;;;27.49;21.23;98019.53;5056140;28;20075;-69
2021/04/27 08:38:03;;;;;;;4.43;2.40;;;;;;;28.23;20.81;98020.09;5053043;28;20028;-68
2021/04/27 08:40:28;;;;;;;5.07;2.58;;;;;;;28.49;20.80;98017.13;5051844;28;20074;-70
2021/04/27 08:42:53;;;;;;;6.30;2.88;;;;;;;28.80;20.27;98011.09;5051806;28;20036;-69
2021/04/27 08:45:19;;;;;;;6.75;3.15;;;;;;;27.24;21.20;98017.66;5063392;28;20028;-71
2021/04/27 08:47:46;;;;;;;5.28;2.65;;;;;;;27.16;21.24;98008.19;5057756;28;20749;-75
2021/04/27 08:50:16;;;;;;;5.05;2.95;;;;;;;24.73;22.38;98010.50;5060516;28;20032;-72
2021/04/27 08:52:42;;;;;;;5.03;2.55;;;;;;;26.02;22.82;98010.25;5065857;28;20040;-79
2021/04/27 08:55:08;;;;;;;3.63;2.25;;;;;;;26.32;22.88;98002.09;5051352;28;20043;-74
2021/04/27 08:57:34;;;;;;;8.82;3.00;;;;;;;26.33;21.99;97987.13;5051825;28;20031;-74
2021/04/27 09:00:00;;;;;;;5.50;2.78;;;;;;;27.09;22.11;98005.09;5048429;28;20027;-79
2021/04/27 09:02:28;;;;;;;8.77;3.00;;;;;;;22.88;23.86;98003.38;5070313;28;20019;-78
2021/04/27 09:04:53;;;;;;;5.43;3.20;;;;;;;24.28;23.94;98003.81;5052576;28;20035;-77
2021/04/27 09:07:21;;;;;;;5.93;3.30;;;;;;;24.82;23.58;97992.03;5073567;28;20016;-78
2021/04/27 09:09:48;;;;;;;4.20;2.85;;;;;;;25.80;23.40;97994.53;5073247;28;20024;-70
2021/04/27 09:12:19;;;;;;;5.57;3.10;;;;;;;26.53;22.88;97985.66;5067452;28;20028;-78
2021/04/27 09:14:44;;;;;;;5.57;3.03;;;;;;;27.52;21.78;97982.75;5050759;28;20032;-84
2021/04/27 09:17:13;;;;;;;4.82;3.13;;;;;;;27.31;21.09;97992.97;5049994;28;20112;-77
2021/04/27 09:19:46;;;;;;;6.30;2.58;;;;;;;27.60;21.34;97981.06;5052970;28;20565;-77
2021/04/27 09:22:18;;;;;;;8.27;3.30;;;;;;;26.67;22.28;97989.06;5049597;28;20032;-73
2021/04/27 09:24:48;;;;;;;5.88;3.53;;;;;;;26.23;23.01;97995.75;5051274;28;20051;-73
2021/04/27 09:27:27;;;;;;;6.20;2.97;;;;;;;26.32;22.26;97991.03;5065688;28;20021;-73
2021/04/27 09:29:54;;;;;;;5.20;3.40;;;;;;;26.92;22.38;97991.28;5062277;28;20056;-71
2021/04/27 09:32:35;;;;;;;5.97;3.17;;;;;;;26.96;22.28;97981.97;5064939;28;20037;-75
2021/04/27 09:35:25;;;;;;;5.53;3.67;;;;;;;25.94;23.44;97983.34;5063539;28;20052;-74
2021/04/27 09:38:12;;;;;;;6.07;2.88;;;;;;;25.92;23.77;97985.63;5056142;28;20023;-74
2021/04/27 09:40:58;;;;;;;6.15;3.30;;;;;;;26.14;23.88;97975.53;5042081;28;20044;-72
2021/04/27 09:43:27;;;;;;;6.13;3.38;;;;;;;26.20;23.11;97968.69;5046584;28;20028;-73
2021/04/27 09:45:55;;;;;;;5.40;3.08;;;;;;;26.61;23.46;97967.38;5059711;28;20028;-74
2021/04/27 09:48:33;;;;;;;5.80;3.58;;;;;;;25.84;23.87;97964.25;5063190;28;20028;-74
2021/04/27 09:51:13;;;;;;;8.55;3.90;;;;;;;26.33;23.06;97953.00;5064427;28;20036;-72
2021/04/27 09:53:39;;;;;;;6.10;3.78;;;;;;;25.96;23.52;97958.06;5067628;28;20530;-72
2021/04/27 09:56:04;;;;;;;7.65;3.67;;;;;;;26.22;23.37;97956.09;5061254;28;20127;-75
2021/04/27 09:58:29;;;;;;;8.32;3.22;;;;;;;26.64;23.36;97944.50;5063879;28;20021;-74
2021/04/27 10:00:57;;;;;;;6.53;3.88;;;;;;;27.78;22.06;97940.09;5062525;28;20099;-72
2021/04/27 10:03:23;;;;;;;5.35;3.45;;;;;;;28.08;21.70;97949.19;5066774;28;20629;-73
2021/04/27 10:05:49;;;;;;;8.30;3.35;;;;;;;27.98;21.96;97944.03;5064632;28;20056;-73
2021/04/27 10:08:15;;;;;;;5.40;3.50;;;;;;;28.37;21.75;97948.31;5042277;28;21392;-73
2021/04/27 10:10:41;;;;;;;7.13;3.67;;;;;;;27.68;21.49;97932.94;5060211;28;20037;-71
2021/04/27 10:13:09;;;;;;;7.25;3.35;;;;;;;28.34;21.85;97935.06;5065102;28;20029;-72
2021/04/27 10:15:35;;;;;;;5.45;3.95;;;;;;;27.14;21.24;97926.38;5064288;28;20382;-71
2021/04/27 10:18:04;;;;;;;5.03;3.90;;;;;;;26.18;22.43;97927.41;5066668;28;20029;-74
2021/04/27 10:20:30;;;;;;;5.68;3.97;;;;;;;26.67;22.03;97921.63;5040302;28;20016;-72
2021/04/27 10:22:57;;;;;;;5.82;3.85;;;;;;;27.65;21.08;97928.06;5062817;28;20043;-72
2021/04/27 10:25:25;;;;;;;5.65;3.42;;;;;;;27.72;20.96;97925.59;5068274;28;20091;-71
2021/04/27 10:27:55;;;;;;;5.43;3.70;;;;;;;26.95;21.56;97929.56;5069253;28;20394;-71
2021/04/27 10:30:23;;;;;;;6.53;3.95;;;;;;;28.07;20.47;97922.56;5055812;28;20028;-72
2021/04/27 10:33:00;;;;;;;5.00;4.00;;;;;;;28.06;21.74;97925.66;5066925;28;20108;-71
2021/04/27 10:35:26;;;;;;;4.35;3.40;;;;;;;26.74;21.34;97927.50;5060628;28;20055;-70
2021/04/27 10:38:18;;;;;;;6.18;3.63;;;;;;;27.39;20.85;97905.22;5056882;28;20717;-71
2021/04/27 10:41:01;;;;;;;6.75;4.30;;;;;;;27.97;19.26;97900.72;5036263;28;20037;-73
2021/04/27 10:43:26;;;;;;;9.82;4.07;;;;;;;27.32;21.60;97903.75;5035201;28;20032;-74
2021/04/27 10:45:56;;;;;;;7.50;4.40;;;;;;;28.06;19.98;97897.84;5041002;28;20029;-75
2021/04/27 10:48:45;;;;;;;7.97;4.78;;;;;;;27.25;20.34;97881.28;5052800;28;20067;-74
2021/04/27 10:51:19;;;;;;;7.43;4.78;;;;;;;25.80;20.82;97894.78;5067163;28;20028;-72
2021/04/27 10:54:04;;;;;;;7.82;4.57;;;;;;;25.33;20.85;97899.28;5066438;28;20111;-74
2021/04/27 10:57:05;;;;;;;6.53;4.50;;;;;;;24.52;22.12;97900.41;5037642;28;20021;-75
2021/04/27 10:59:47;;;;;;;8.18;4.97;;;;;;;24.51;22.73;97879.41;5035240;28;20029;-75
2021/04/27 11:02:16;;;;;;;9.25;5.05;;;;;;;24.91;22.67;97882.19;5068903;28;20099;-71
2021/04/27 11:04:43;;;;;;;;;;;;;;;26.21;21.46;97870.50;5073648;28;20024;-74
2021/04/27 11:07:30;;;;;;;8.88;4.30;;;;;;;28.21;19.29;97874.97;5068036;28;19931;-75
2021/04/27 11:09:58;;;;;;;7.05;4.32;;;;;;;28.69;19.36;97859.59;5074372;28;20048;-74
2021/04/27 11:12:30;;;;;;;7.17;3.97;;;;;;;28.48;20.31;97859.69;5061255;28;20021;-69
2021/04/27 11:14:57;;;;;;;6.78;4.10;;;;;;;27.20;20.37;97858.44;5070604;28;20796;-67
2021/04/27 11:17:35;;;;;;;5.85;4.18;;;;;;;28.86;19.46;97846.63;5065497;28;20036;-67
2021/04/27 11:20:04;;;;;;;7.20;4.40;;;;;;;26.94;19.27;97847.44;5053859;28;20029;-66
2021/04/27 11:22:32;;;;;;;;;;;;;;;26.20;20.58;97855.03;5052625;28;20055;-67
2021/04/27 11:24:58;;;;;;;8.38;4.38;;;;;;;25.53;19.95;97862.66;5061270;28;19919;-66
2021/04/27 11:27:33;;;;;;;7.47;4.18;;;;;;;25.01;21.04;97845.13;5069606;28;20394;-68
2021/04/27 11:30:08;;;;;;;6.85;4.32;;;;;;;25.68;20.55;97835.63;5056891;28;20016;-69
2021/04/27 11:32:36;;;;;;;6.10;4.65;;;;;;;26.47;20.78;97839.13;5070775;28;20051;-72
2021/04/27 11:35:09;;;;;;;7.13;4.18;;;;;;;25.73;20.99;97843.78;5052150;28;20036;-70
2021/04/27 11:37:46;;;;;;;8.30;4.82;;;;;;;24.88;21.14;97844.09;5053801;28;20359;-68
2021/04/27 11:40:26;;;;;;;6.35;4.03;;;;;;;25.95;20.35;97834.50;5068891;28;20035;-68
2021/04/27 11:42:55;;;;;;;5.65;3.92;;;;;;;26.69;19.99;97824.19;5052360;28;20518;-70
2021/04/27 11:45:20;;;;;;;;;;;;;;;27.93;19.39;97833.06;5063265;28;20024;-71
2021/04/27 11:47:47;;;;;;;6.57;4.38;;;;;;;27.57;19.46;97828.13;5057828;28;19912;-68